Aviation Digital Data Service (ADDS)

Output produced by METARs form (0333 UTC 19 August 2019)
found at http://www.aviationweather.gov/metar/data/
 
METAR text: MHLM 190300Z 02006KT 9999 FEW026CB BKN080 28/24 Q1011 A2986 NOSIG
Conditions at: MHLM (LA MESA/PEDRO S , HN) observed 0300 UTC 19 August 2019
Temperature: 28.0°C (82°F)
Dewpoint: 24.0°C (75°F) [RH = 79%]
Pressure (altimeter): 29.85 inches Hg (1011.0 mb)
Winds: from the NNE (20 degrees) at 7 MPH (6 knots; 3.1 m/s)
Visibility: 6 or more miles (10+ km)
Ceiling: 8000 feet AGL
Clouds: few clouds at 2600 feet AGL
broken clouds at 8000 feet AGL
Weather: no significant weather observed at this time

METAR text: MHLM 190200Z 03006KT 9999 FEW026CB SCT080 28/23 Q1010 A2983 NOSIG
Conditions at: MHLM (LA MESA/PEDRO S , HN) observed 0200 UTC 19 August 2019
Temperature: 28.0°C (82°F)
Dewpoint: 23.0°C (73°F) [RH = 74%]
Pressure (altimeter): 29.82 inches Hg (1010.0 mb)
Winds: from the NNE (30 degrees) at 7 MPH (6 knots; 3.1 m/s)
Visibility: 6 or more miles (10+ km)
Ceiling: at least 12,000 feet AGL
Clouds: few clouds at 2600 feet AGL
scattered clouds at 8000 feet AGL
Weather: no significant weather observed at this time

METAR text: MHLM 190100Z 35005KT 9999 FEW026 SCT080 29/23 Q1009 A2980 NOSIG
Conditions at: MHLM (LA MESA/PEDRO S , HN) observed 0100 UTC 19 August 2019
Temperature: 29.0°C (84°F)
Dewpoint: 23.0°C (73°F) [RH = 70%]
Pressure (altimeter): 29.79 inches Hg (1009.0 mb)
Winds: from the N (350 degrees) at 6 MPH (5 knots; 2.6 m/s)
Visibility: 6 or more miles (10+ km)
Ceiling: at least 12,000 feet AGL
Clouds: few clouds at 2600 feet AGL
scattered clouds at 8000 feet AGL
Weather: no significant weather observed at this time

METAR text: MHLM 190000Z 02011KT 9999 FEW030 BKN080 30/23 Q1009 A2980 NOSIG
Conditions at: MHLM (LA MESA/PEDRO S , HN) observed 0000 UTC 19 August 2019
Temperature: 30.0°C (86°F)
Dewpoint: 23.0°C (73°F) [RH = 66%]
Pressure (altimeter): 29.79 inches Hg (1009.0 mb)
Winds: from the NNE (20 degrees) at 13 MPH (11 knots; 5.7 m/s)
Visibility: 6 or more miles (10+ km)
Ceiling: 8000 feet AGL
Clouds: few clouds at 3000 feet AGL
broken clouds at 8000 feet AGL
Weather: no significant weather observed at this time

METAR text: MHLM 182300Z 02012KT 9999 FEW030 SCT080 31/23 Q1009 A2980 NOSIG
Conditions at: MHLM (LA MESA/PEDRO S , HN) observed 2300 UTC 18 August 2019
Temperature: 31.0°C (88°F)
Dewpoint: 23.0°C (73°F) [RH = 63%]
Pressure (altimeter): 29.79 inches Hg (1009.0 mb)
Winds: from the NNE (20 degrees) at 14 MPH (12 knots; 6.2 m/s)
Visibility: 6 or more miles (10+ km)
Ceiling: at least 12,000 feet AGL
Clouds: few clouds at 3000 feet AGL
scattered clouds at 8000 feet AGL
Weather: no significant weather observed at this time

METAR text: MHLM 182200Z 02014KT 9999 SCT030TCU SCT250 32/24 Q1009 A2980 NOSIG
Conditions at: MHLM (LA MESA/PEDRO S , HN) observed 2200 UTC 18 August 2019
Temperature: 32.0°C (90°F)
Dewpoint: 24.0°C (75°F) [RH = 63%]
Pressure (altimeter): 29.79 inches Hg (1009.0 mb)
Winds: from the NNE (20 degrees) at 16 MPH (14 knots; 7.2 m/s)
Visibility: 6 or more miles (10+ km)
Ceiling: at least 12,000 feet AGL
Clouds: scattered clouds at 3000 feet AGL
scattered clouds at 25000 feet AGL
Weather: no significant weather observed at this time

METAR text: MHLM 182100Z 06009KT 9999 SCT030 SCT080 34/22 Q1009 A2980 NOSIG
Conditions at: MHLM (LA MESA/PEDRO S , HN) observed 2100 UTC 18 August 2019
Temperature: 34.0°C (93°F)
Dewpoint: 22.0°C (72°F) [RH = 50%]
Pressure (altimeter): 29.79 inches Hg (1009.0 mb)
Winds: from the ENE (60 degrees) at 10 MPH (9 knots; 4.6 m/s)
Visibility: 6 or more miles (10+ km)
Ceiling: at least 12,000 feet AGL
Clouds: scattered clouds at 3000 feet AGL
scattered clouds at 8000 feet AGL
Weather: no significant weather observed at this time

METAR text: MHLM 182000Z 01006KT 98999 SCT030 SCT250 34/23 Q1010 A2983 NOSIG
Conditions at: MHLM (LA MESA/PEDRO S , HN) observed 2000 UTC 18 August 2019
Temperature: 34.0°C (93°F)
Dewpoint: 23.0°C (73°F) [RH = 53%]
Pressure (altimeter): 29.82 inches Hg (1010.0 mb)
Winds: from the N (10 degrees) at 7 MPH (6 knots; 3.1 m/s)
Visibility: 6 miles ( 9 km)
Ceiling: at least 12,000 feet AGL
Clouds: scattered clouds at 3000 feet AGL
scattered clouds at 25000 feet AGL
Weather: no significant weather observed at this time

METAR text: MHLM 181800Z 13004KT 9999 FEW030 BKN250 32/22 Q1012 A2989 NOSIG
Conditions at: MHLM (LA MESA/PEDRO S , HN) observed 1800 UTC 18 August 2019
Temperature: 32.0°C (90°F)
Dewpoint: 22.0°C (72°F) [RH = 56%]
Pressure (altimeter): 29.88 inches Hg (1012.0 mb)
Winds: from the SE (130 degrees) at 5 MPH (4 knots; 2.1 m/s)
Visibility: 6 or more miles (10+ km)
Ceiling: 25000 feet AGL
Clouds: few clouds at 3000 feet AGL
broken clouds at 25000 feet AGL
Weather: no significant weather observed at this time

METAR text: MHLM 181700Z 23005KT 9999 SCT030 SCT250 31/22 Q1013 A2992 NOSIG
Conditions at: MHLM (LA MESA/PEDRO S , HN) observed 1700 UTC 18 August 2019
Temperature: 31.0°C (88°F)
Dewpoint: 22.0°C (72°F) [RH = 59%]
Pressure (altimeter): 29.91 inches Hg (1013.0 mb)
Winds: from the SW (230 degrees) at 6 MPH (5 knots; 2.6 m/s)
Visibility: 6 or more miles (10+ km)
Ceiling: at least 12,000 feet AGL
Clouds: scattered clouds at 3000 feet AGL
scattered clouds at 25000 feet AGL
Weather: no significant weather observed at this time

METAR text: MHLM 181600Z 22005KT 9999 FEW030 SCT250 29/23 Q1013 A2992 NOSIG
Conditions at: MHLM (LA MESA/PEDRO S , HN) observed 1600 UTC 18 August 2019
Temperature: 29.0°C (84°F)
Dewpoint: 23.0°C (73°F) [RH = 70%]
Pressure (altimeter): 29.91 inches Hg (1013.0 mb)
Winds: from the SW (220 degrees) at 6 MPH (5 knots; 2.6 m/s)
Visibility: 6 or more miles (10+ km)
Ceiling: at least 12,000 feet AGL
Clouds: few clouds at 3000 feet AGL
scattered clouds at 25000 feet AGL
Weather: no significant weather observed at this time

METAR text: MHLM 181500Z 23007KT 9999 FEW030 BKN070 27/23 Q1013 A2992 NOSIG
Conditions at: MHLM (LA MESA/PEDRO S , HN) observed 1500 UTC 18 August 2019
Temperature: 27.0°C (81°F)
Dewpoint: 23.0°C (73°F) [RH = 79%]
Pressure (altimeter): 29.91 inches Hg (1013.0 mb)
Winds: from the SW (230 degrees) at 8 MPH (7 knots; 3.6 m/s)
Visibility: 6 or more miles (10+ km)
Ceiling: 7000 feet AGL
Clouds: few clouds at 3000 feet AGL
broken clouds at 7000 feet AGL
Weather: no significant weather observed at this time

METAR text: MHLM 181400Z 24004KT 9999 SCT035 BKN070 26/23 Q1012 A2989 NOSIG
Conditions at: MHLM (LA MESA/PEDRO S , HN) observed 1400 UTC 18 August 2019
Temperature: 26.0°C (79°F)
Dewpoint: 23.0°C (73°F) [RH = 84%]
Pressure (altimeter): 29.88 inches Hg (1012.0 mb)
Winds: from the WSW (240 degrees) at 5 MPH (4 knots; 2.1 m/s)
Visibility: 6 or more miles (10+ km)
Ceiling: 7000 feet AGL
Clouds: scattered clouds at 3500 feet AGL
broken clouds at 7000 feet AGL
Weather: no significant weather observed at this time

METAR text: MHLM 181300Z 02004KT 9999 FEW030 SCT070 25/23 Q1011 A2986 NOSIG
Conditions at: MHLM (LA MESA/PEDRO S , HN) observed 1300 UTC 18 August 2019
Temperature: 25.0°C (77°F)
Dewpoint: 23.0°C (73°F) [RH = 89%]
Pressure (altimeter): 29.85 inches Hg (1011.0 mb)
Winds: from the NNE (20 degrees) at 5 MPH (4 knots; 2.1 m/s)
Visibility: 6 or more miles (10+ km)
Ceiling: at least 12,000 feet AGL
Clouds: few clouds at 3000 feet AGL
scattered clouds at 7000 feet AGL
Weather: no significant weather observed at this time

METAR text: MHLM 181200Z 00000KT 9999 FEW026 SCT080 24/22 Q1011 A2986 NOSIG
Conditions at: MHLM (LA MESA/PEDRO S , HN) observed 1200 UTC 18 August 2019
Temperature: 24.0°C (75°F)
Dewpoint: 22.0°C (72°F) [RH = 89%]
Pressure (altimeter): 29.85 inches Hg (1011.0 mb)
Winds: calm
Visibility: 6 or more miles (10+ km)
Ceiling: at least 12,000 feet AGL
Clouds: few clouds at 2600 feet AGL
scattered clouds at 8000 feet AGL
Weather: no significant weather observed at this time

METAR text: MHLM 181100Z 00000KT 9999 FEW026 SCT070 24/22 Q1010 A2983 NOSIG
Conditions at: MHLM (LA MESA/PEDRO S , HN) observed 1100 UTC 18 August 2019
Temperature: 24.0°C (75°F)
Dewpoint: 22.0°C (72°F) [RH = 89%]
Pressure (altimeter): 29.82 inches Hg (1010.0 mb)
Winds: calm
Visibility: 6 or more miles (10+ km)
Ceiling: at least 12,000 feet AGL
Clouds: few clouds at 2600 feet AGL
scattered clouds at 7000 feet AGL
Weather: no significant weather observed at this time

METAR text: MHLM 181000Z 15005KT 9999 FEW026 BKN070 24/22 Q1010 A2983 NOSIG
Conditions at: MHLM (LA MESA/PEDRO S , HN) observed 1000 UTC 18 August 2019
Temperature: 24.0°C (75°F)
Dewpoint: 22.0°C (72°F) [RH = 89%]
Pressure (altimeter): 29.82 inches Hg (1010.0 mb)
Winds: from the SSE (150 degrees) at 6 MPH (5 knots; 2.6 m/s)
Visibility: 6 or more miles (10+ km)
Ceiling: 7000 feet AGL
Clouds: few clouds at 2600 feet AGL
broken clouds at 7000 feet AGL
Weather: no significant weather observed at this time

METAR text: MHLM 180900Z 00000KT 9999 FEW026 BKN070 24/22 Q1011 A2986 NOSIG
Conditions at: MHLM (LA MESA/PEDRO S , HN) observed 0900 UTC 18 August 2019
Temperature: 24.0°C (75°F)
Dewpoint: 22.0°C (72°F) [RH = 89%]
Pressure (altimeter): 29.85 inches Hg (1011.0 mb)
Winds: calm
Visibility: 6 or more miles (10+ km)
Ceiling: 7000 feet AGL
Clouds: few clouds at 2600 feet AGL
broken clouds at 7000 feet AGL
Weather: no significant weather observed at this time

METAR text: MHLM 180800Z 24005KT 9999 FEW026 BKN070 24/22 Q1011 A2986 NOSIG
Conditions at: MHLM (LA MESA/PEDRO S , HN) observed 0800 UTC 18 August 2019
Temperature: 24.0°C (75°F)
Dewpoint: 22.0°C (72°F) [RH = 89%]
Pressure (altimeter): 29.85 inches Hg (1011.0 mb)
Winds: from the WSW (240 degrees) at 6 MPH (5 knots; 2.6 m/s)
Visibility: 6 or more miles (10+ km)
Ceiling: 7000 feet AGL
Clouds: few clouds at 2600 feet AGL
broken clouds at 7000 feet AGL
Weather: no significant weather observed at this time

METAR text: MHLM 180700Z 22005KT 9999 FEW026 BKN070 25/22 Q1012 A2989 NOSIG
Conditions at: MHLM (LA MESA/PEDRO S , HN) observed 0700 UTC 18 August 2019
Temperature: 25.0°C (77°F)
Dewpoint: 22.0°C (72°F) [RH = 83%]
Pressure (altimeter): 29.88 inches Hg (1012.0 mb)
Winds: from the SW (220 degrees) at 6 MPH (5 knots; 2.6 m/s)
Visibility: 6 or more miles (10+ km)
Ceiling: 7000 feet AGL
Clouds: few clouds at 2600 feet AGL
broken clouds at 7000 feet AGL
Weather: no significant weather observed at this time

METAR text: MHLM 180600Z 00000KT 9999 FEW026 BKN070 24/22 Q1012 A2989 NOSIG
Conditions at: MHLM (LA MESA/PEDRO S , HN) observed 0600 UTC 18 August 2019
Temperature: 24.0°C (75°F)
Dewpoint: 22.0°C (72°F) [RH = 89%]
Pressure (altimeter): 29.88 inches Hg (1012.0 mb)
Winds: calm
Visibility: 6 or more miles (10+ km)
Ceiling: 7000 feet AGL
Clouds: few clouds at 2600 feet AGL
broken clouds at 7000 feet AGL
Weather: no significant weather observed at this time

METAR text: MHLM 180500Z 13005KT 9999 FEW026 BKN070 24/22 Q1012 A2989 NOSIG
Conditions at: MHLM (LA MESA/PEDRO S , HN) observed 0500 UTC 18 August 2019
Temperature: 24.0°C (75°F)
Dewpoint: 22.0°C (72°F) [RH = 89%]
Pressure (altimeter): 29.88 inches Hg (1012.0 mb)
Winds: from the SE (130 degrees) at 6 MPH (5 knots; 2.6 m/s)
Visibility: 6 or more miles (10+ km)
Ceiling: 7000 feet AGL
Clouds: few clouds at 2600 feet AGL
broken clouds at 7000 feet AGL
Weather: no significant weather observed at this time

METAR text: MHLM 180400Z 20006KT 9999 FEW026 BKN070 25/21 Q1012 A2989 NOSIG
Conditions at: MHLM (LA MESA/PEDRO S , HN) observed 0400 UTC 18 August 2019
Temperature: 25.0°C (77°F)
Dewpoint: 21.0°C (70°F) [RH = 79%]
Pressure (altimeter): 29.88 inches Hg (1012.0 mb)
Winds: from the SSW (200 degrees) at 7 MPH (6 knots; 3.1 m/s)
Visibility: 6 or more miles (10+ km)
Ceiling: 7000 feet AGL
Clouds: few clouds at 2600 feet AGL
broken clouds at 7000 feet AGL
Weather: no significant weather observed at this time

METAR text: MHLM 180300Z 20005KT 9999 FEW026 BKN070 25/21 Q1012 A2989 NOSIG
Conditions at: MHLM (LA MESA/PEDRO S , HN) observed 0300 UTC 18 August 2019
Temperature: 25.0°C (77°F)
Dewpoint: 21.0°C (70°F) [RH = 79%]
Pressure (altimeter): 29.88 inches Hg (1012.0 mb)
Winds: from the SSW (200 degrees) at 6 MPH (5 knots; 2.6 m/s)
Visibility: 6 or more miles (10+ km)
Ceiling: 7000 feet AGL
Clouds: few clouds at 2600 feet AGL
broken clouds at 7000 feet AGL
Weather: no significant weather observed at this time

METAR text: MHLM 180200Z 20008KT 9999 SCT026 BKN070 25/22 Q1011 A2996 RETS NOSIG
Conditions at: MHLM (LA MESA/PEDRO S , HN) observed 0200 UTC 18 August 2019
Temperature: 25.0°C (77°F)
Dewpoint: 22.0°C (72°F) [RH = 83%]
Pressure (altimeter): 29.85 inches Hg (1011.0 mb)
Winds: from the SSW (200 degrees) at 9 MPH (8 knots; 4.1 m/s)
Visibility: 6 or more miles (10+ km)
Ceiling: 7000 feet AGL
Clouds: scattered clouds at 2600 feet AGL
broken clouds at 7000 feet AGL
Weather: no significant weather observed at this time

METAR text: MHLM 180100Z 22015KT 9999 TS FEW026 FEW028CB BKN070 25/22 Q1012 A2989 NOSIG
Conditions at: MHLM (LA MESA/PEDRO S , HN) observed 0100 UTC 18 August 2019
Temperature: 25.0°C (77°F)
Dewpoint: 22.0°C (72°F) [RH = 83%]
Pressure (altimeter): 29.88 inches Hg (1012.0 mb)
Winds: from the SW (220 degrees) at 17 MPH (15 knots; 7.7 m/s)
Visibility: 6 or more miles (10+ km)
Ceiling: 7000 feet AGL
Clouds: few clouds at 2600 feet AGL
few clouds at 2800 feet AGL
broken clouds at 7000 feet AGL
Weather: TS  (thunderstorm)

METAR text: MHLM 180000Z 04010KT 9999 TS SCT030CB BKN250 31/24 Q1009 A2980 NOSIG
Conditions at: MHLM (LA MESA/PEDRO S , HN) observed 0000 UTC 18 August 2019
Temperature: 31.0°C (88°F)
Dewpoint: 24.0°C (75°F) [RH = 66%]
Pressure (altimeter): 29.79 inches Hg (1009.0 mb)
Winds: from the NE (40 degrees) at 12 MPH (10 knots; 5.1 m/s)
Visibility: 6 or more miles (10+ km)
Ceiling: 25000 feet AGL
Clouds: scattered clouds at 3000 feet AGL
broken clouds at 25000 feet AGL
Weather: TS  (thunderstorm)

METAR text: MHLM 172300Z 02013KT 9999 TS SCT030CB BKN250 32/24 Q1009 A2980 NOSIG
Conditions at: MHLM (LA MESA/PEDRO S , HN) observed 2300 UTC 17 August 2019
Temperature: 32.0°C (90°F)
Dewpoint: 24.0°C (75°F) [RH = 63%]
Pressure (altimeter): 29.79 inches Hg (1009.0 mb)
Winds: from the NNE (20 degrees) at 15 MPH (13 knots; 6.7 m/s)
Visibility: 6 or more miles (10+ km)
Ceiling: 25000 feet AGL
Clouds: scattered clouds at 3000 feet AGL
broken clouds at 25000 feet AGL
Weather: TS  (thunderstorm)

METAR text: MHLM 172200Z 02011KT 9999 SCT030TCU BKN250 34/25 Q1009 A2980 NOSIG
Conditions at: MHLM (LA MESA/PEDRO S , HN) observed 2200 UTC 17 August 2019
Temperature: 34.0°C (93°F)
Dewpoint: 25.0°C (77°F) [RH = 60%]
Pressure (altimeter): 29.79 inches Hg (1009.0 mb)
Winds: from the NNE (20 degrees) at 13 MPH (11 knots; 5.7 m/s)
Visibility: 6 or more miles (10+ km)
Ceiling: 25000 feet AGL
Clouds: scattered clouds at 3000 feet AGL
broken clouds at 25000 feet AGL
Weather: no significant weather observed at this time

METAR text: MHLM 172100Z 03011KT 9999 SCT030 SCT250 34/24 Q1009 A2980 NOSIG
Conditions at: MHLM (LA MESA/PEDRO S , HN) observed 2100 UTC 17 August 2019
Temperature: 34.0°C (93°F)
Dewpoint: 24.0°C (75°F) [RH = 56%]
Pressure (altimeter): 29.79 inches Hg (1009.0 mb)
Winds: from the NNE (30 degrees) at 13 MPH (11 knots; 5.7 m/s)
Visibility: 6 or more miles (10+ km)
Ceiling: at least 12,000 feet AGL
Clouds: scattered clouds at 3000 feet AGL
scattered clouds at 25000 feet AGL
Weather: no significant weather observed at this time

METAR text: MHLM 172000Z 33006KT 9999 SCT030 SCT250 34/23 Q1010 A2983 NOSIG
Conditions at: MHLM (LA MESA/PEDRO S , HN) observed 2000 UTC 17 August 2019
Temperature: 34.0°C (93°F)
Dewpoint: 23.0°C (73°F) [RH = 53%]
Pressure (altimeter): 29.82 inches Hg (1010.0 mb)
Winds: from the NNW (330 degrees) at 7 MPH (6 knots; 3.1 m/s)
Visibility: 6 or more miles (10+ km)
Ceiling: at least 12,000 feet AGL
Clouds: scattered clouds at 3000 feet AGL
scattered clouds at 25000 feet AGL
Weather: no significant weather observed at this time

METAR text: MHLM 171900Z 05003KT 9999 SCT030 SCT250 33/24 Q1011 A2986 NOSIG
Conditions at: MHLM (LA MESA/PEDRO S , HN) observed 1900 UTC 17 August 2019
Temperature: 33.0°C (91°F)
Dewpoint: 24.0°C (75°F) [RH = 59%]
Pressure (altimeter): 29.85 inches Hg (1011.0 mb)
Winds: from the NE (50 degrees) at 3 MPH (3 knots; 1.5 m/s)
Visibility: 6 or more miles (10+ km)
Ceiling: at least 12,000 feet AGL
Clouds: scattered clouds at 3000 feet AGL
scattered clouds at 25000 feet AGL
Weather: no significant weather observed at this time

METAR text: MHLM 171800Z 35002KT 9999 FEW030 SCT250 32/23 Q1012 A2989 NOSIG
Conditions at: MHLM (LA MESA/PEDRO S , HN) observed 1800 UTC 17 August 2019
Temperature: 32.0°C (90°F)
Dewpoint: 23.0°C (73°F) [RH = 59%]
Pressure (altimeter): 29.88 inches Hg (1012.0 mb)
Winds: from the N (350 degrees) at 2 MPH (2 knots; 1.0 m/s)
Visibility: 6 or more miles (10+ km)
Ceiling: at least 12,000 feet AGL
Clouds: few clouds at 3000 feet AGL
scattered clouds at 25000 feet AGL
Weather: no significant weather observed at this time

METAR text: MHLM 171700Z 35003KT 9999 FEW030 SCT250 31/22 Q1013 A2992 NOSIG
Conditions at: MHLM (LA MESA/PEDRO S , HN) observed 1700 UTC 17 August 2019
Temperature: 31.0°C (88°F)
Dewpoint: 22.0°C (72°F) [RH = 59%]
Pressure (altimeter): 29.91 inches Hg (1013.0 mb)
Winds: from the N (350 degrees) at 3 MPH (3 knots; 1.5 m/s)
Visibility: 6 or more miles (10+ km)
Ceiling: at least 12,000 feet AGL
Clouds: few clouds at 3000 feet AGL
scattered clouds at 25000 feet AGL
Weather: no significant weather observed at this time

METAR text: MHLM 171600Z 34002KT 9999 FEW028 SCT250 29/23 Q1014 A2995 NOSIG
Conditions at: MHLM (LA MESA/PEDRO S , HN) observed 1600 UTC 17 August 2019
Temperature: 29.0°C (84°F)
Dewpoint: 23.0°C (73°F) [RH = 70%]
Pressure (altimeter): 29.94 inches Hg (1014.0 mb)
Winds: from the NNW (340 degrees) at 2 MPH (2 knots; 1.0 m/s)
Visibility: 6 or more miles (10+ km)
Ceiling: at least 12,000 feet AGL
Clouds: few clouds at 2800 feet AGL
scattered clouds at 25000 feet AGL
Weather: no significant weather observed at this time

Forecast for: MHLM (LA MESA/PEDRO S , HN)
Text: TAF MHLM 182225Z 1900/1924 21003KT 8000 VCSH SCT026 SCT070 TX34/1920Z TN24/1912Z
Forecast period: 0000 to 0800 UTC 19 August 2019
Forecast type: FROM: standard forecast or significant change
Winds: from the SSW (210 degrees) at 3 MPH (3 knots; 1.5 m/s)
Visibility: 5 miles (8 km)
Ceiling: at least 12,000 feet AGL
Clouds: scattered clouds at 2600 feet AGL
scattered clouds at 7000 feet AGL
Weather: VCSH  (showers in vicinity)
Text: BECMG 1908/1910 00000KT 6000 VCSH SCT024 SCT080
Forecast period: 0800 to 1400 UTC 19 August 2019
Forecast type: BECOMING: Conditions expected to become as follows by 1000 UTC 19 August 2019
Winds: calm
Visibility: 4 miles (6 km)
Ceiling: at least 12,000 feet AGL
Clouds: scattered clouds at 2400 feet AGL
scattered clouds at 8000 feet AGL
Weather: VCSH  (showers in vicinity)
Text: BECMG 1914/1916 02006KT 9999 NSW SCT028TCU
Forecast period: 1400 to 2000 UTC 19 August 2019
Forecast type: BECOMING: Conditions expected to become as follows by 1600 UTC 19 August 2019
Winds: from the NNE (20 degrees) at 7 MPH (6 knots; 3.1 m/s)
Visibility: 6 or more miles 10+ km)
Ceiling: at least 12,000 feet AGL
Clouds: scattered clouds at 2800 feet AGL
Weather: NSW  (no significant weather)
Text: BECMG 1920/1922 8000 VCSH FEW026CB SCT030TCU SCT070
Forecast period: 2000 UTC 19 August 2019 to 0000 UTC 20 August 2019
Forecast type: BECOMING: Conditions expected to become as follows by 2200 UTC 19 August 2019
Winds: from the NNE (20 degrees) at 7 MPH (6 knots; 3.1 m/s)
Visibility: 5 miles (8 km)
Ceiling: at least 12,000 feet AGL
Clouds: few clouds at 2600 feet AGL
scattered clouds at 3000 feet AGL
scattered clouds at 7000 feet AGL
Weather: VCSH  (showers in vicinity)